sensor_id;sensor_type;location;lat;lon;timestamp;temperature;humidity
8565;DHT22;4320;51.498;6.556;2024-02-21T00:02:07;10.50;96.90
8565;DHT22;4320;51.498;6.556;2024-02-21T00:04:33;10.50;97.90
8565;DHT22;4320;51.498;6.556;2024-02-21T00:06:59;10.60;97.60
8565;DHT22;4320;51.498;6.556;2024-02-21T00:09:24;10.60;98.30
8565;DHT22;4320;51.498;6.556;2024-02-21T00:11:50;10.60;96.90
8565;DHT22;4320;51.498;6.556;2024-02-21T00:14:15;10.50;97.40
8565;DHT22;4320;51.498;6.556;2024-02-21T00:16:41;10.60;98.10
8565;DHT22;4320;51.498;6.556;2024-02-21T00:19:07;10.60;97.20
8565;DHT22;4320;51.498;6.556;2024-02-21T00:21:32;10.60;97.80
8565;DHT22;4320;51.498;6.556;2024-02-21T00:23:58;10.60;96.90
8565;DHT22;4320;51.498;6.556;2024-02-21T00:26:24;10.60;97.30
8565;DHT22;4320;51.498;6.556;2024-02-21T00:28:51;10.60;96.90
8565;DHT22;4320;51.498;6.556;2024-02-21T00:31:16;10.60;97.80
8565;DHT22;4320;51.498;6.556;2024-02-21T00:33:42;10.60;97.50
8565;DHT22;4320;51.498;6.556;2024-02-21T00:36:08;10.60;97.90
8565;DHT22;4320;51.498;6.556;2024-02-21T00:38:33;10.60;97.30
8565;DHT22;4320;51.498;6.556;2024-02-21T00:40:59;10.60;97.60
8565;DHT22;4320;51.498;6.556;2024-02-21T00:43:24;10.60;97.70
8565;DHT22;4320;51.498;6.556;2024-02-21T00:45:50;10.60;97.30
8565;DHT22;4320;51.498;6.556;2024-02-21T00:48:16;10.70;96.30
8565;DHT22;4320;51.498;6.556;2024-02-21T00:50:41;10.70;96.40
8565;DHT22;4320;51.498;6.556;2024-02-21T00:53:07;10.70;96.40
8565;DHT22;4320;51.498;6.556;2024-02-21T00:55:33;10.70;96.50
8565;DHT22;4320;51.498;6.556;2024-02-21T00:57:59;10.70;96.80
8565;DHT22;4320;51.498;6.556;2024-02-21T01:00:24;10.70;96.90
8565;DHT22;4320;51.498;6.556;2024-02-21T01:02:50;10.70;96.20
8565;DHT22;4320;51.498;6.556;2024-02-21T01:05:16;10.70;96.40
8565;DHT22;4320;51.498;6.556;2024-02-21T01:07:41;10.60;96.60
8565;DHT22;4320;51.498;6.556;2024-02-21T01:10:07;10.60;97.10
8565;DHT22;4320;51.498;6.556;2024-02-21T01:12:33;10.70;96.80
8565;DHT22;4320;51.498;6.556;2024-02-21T01:14:59;10.60;97.10
8565;DHT22;4320;51.498;6.556;2024-02-21T01:17:24;10.50;96.80
8565;DHT22;4320;51.498;6.556;2024-02-21T01:19:50;10.50;97.30
8565;DHT22;4320;51.498;6.556;2024-02-21T01:22:15;10.50;98.30
8565;DHT22;4320;51.498;6.556;2024-02-21T01:24:41;10.50;98.30
8565;DHT22;4320;51.498;6.556;2024-02-21T01:27:07;10.60;97.80
8565;DHT22;4320;51.498;6.556;2024-02-21T01:29:33;10.60;97.60
8565;DHT22;4320;51.498;6.556;2024-02-21T01:31:58;10.60;97.70
8565;DHT22;4320;51.498;6.556;2024-02-21T01:34:24;10.60;97.10
8565;DHT22;4320;51.498;6.556;2024-02-21T01:36:50;10.60;97.50
8565;DHT22;4320;51.498;6.556;2024-02-21T01:39:15;10.60;97.20
8565;DHT22;4320;51.498;6.556;2024-02-21T01:41:41;10.50;97.80
8565;DHT22;4320;51.498;6.556;2024-02-21T01:44:07;10.50;98.20
8565;DHT22;4320;51.498;6.556;2024-02-21T01:46:32;10.50;99.00
8565;DHT22;4320;51.498;6.556;2024-02-21T01:48:58;10.40;98.60
8565;DHT22;4320;51.498;6.556;2024-02-21T01:51:24;10.50;99.20
8565;DHT22;4320;51.498;6.556;2024-02-21T01:53:51;10.50;98.80
8565;DHT22;4320;51.498;6.556;2024-02-21T01:56:17;10.50;98.70
8565;DHT22;4320;51.498;6.556;2024-02-21T01:58:43;10.50;99.50
8565;DHT22;4320;51.498;6.556;2024-02-21T02:01:10;10.50;99.90
8565;DHT22;4320;51.498;6.556;2024-02-21T02:03:36;10.40;99.90
8565;DHT22;4320;51.498;6.556;2024-02-21T02:06:03;10.40;99.90
8565;DHT22;4320;51.498;6.556;2024-02-21T02:08:30;10.40;99.80
8565;DHT22;4320;51.498;6.556;2024-02-21T02:10:56;10.40;99.90
8565;DHT22;4320;51.498;6.556;2024-02-21T02:13:22;10.40;99.40
8565;DHT22;4320;51.498;6.556;2024-02-21T02:15:49;10.40;99.90
8565;DHT22;4320;51.498;6.556;2024-02-21T02:18:16;10.40;99.00
8565;DHT22;4320;51.498;6.556;2024-02-21T02:20:44;10.40;99.60
8565;DHT22;4320;51.498;6.556;2024-02-21T02:23:10;10.30;99.40
8565;DHT22;4320;51.498;6.556;2024-02-21T02:25:37;10.40;99.60
8565;DHT22;4320;51.498;6.556;2024-02-21T02:28:06;10.40;99.60
8565;DHT22;4320;51.498;6.556;2024-02-21T02:30:36;10.40;99.50
8565;DHT22;4320;51.498;6.556;2024-02-21T02:33:05;10.30;99.60
8565;DHT22;4320;51.498;6.556;2024-02-21T02:35:31;10.30;99.40
8565;DHT22;4320;51.498;6.556;2024-02-21T02:37:57;10.20;99.90
8565;DHT22;4320;51.498;6.556;2024-02-21T02:40:22;10.20;99.90
8565;DHT22;4320;51.498;6.556;2024-02-21T02:42:48;10.20;99.90
8565;DHT22;4320;51.498;6.556;2024-02-21T02:45:18;10.20;99.90
8565;DHT22;4320;51.498;6.556;2024-02-21T02:47:47;10.20;99.90
8565;DHT22;4320;51.498;6.556;2024-02-21T02:50:13;10.20;99.90
8565;DHT22;4320;51.498;6.556;2024-02-21T02:52:38;10.20;99.90
8565;DHT22;4320;51.498;6.556;2024-02-21T02:55:05;10.20;99.90
8565;DHT22;4320;51.498;6.556;2024-02-21T02:57:31;10.20;99.90
8565;DHT22;4320;51.498;6.556;2024-02-21T02:59:57;10.10;99.90
8565;DHT22;4320;51.498;6.556;2024-02-21T03:02:23;10.10;99.90
8565;DHT22;4320;51.498;6.556;2024-02-21T03:04:48;10.20;99.90
8565;DHT22;4320;51.498;6.556;2024-02-21T03:07:15;10.20;99.90
8565;DHT22;4320;51.498;6.556;2024-02-21T03:09:41;10.20;99.90
8565;DHT22;4320;51.498;6.556;2024-02-21T03:12:08;10.20;99.90
8565;DHT22;4320;51.498;6.556;2024-02-21T03:14:34;10.30;99.90
8565;DHT22;4320;51.498;6.556;2024-02-21T03:17:28;10.30;99.90
8565;DHT22;4320;51.498;6.556;2024-02-21T03:19:54;10.30;99.90
8565;DHT22;4320;51.498;6.556;2024-02-21T03:22:21;10.30;99.90
8565;DHT22;4320;51.498;6.556;2024-02-21T03:24:47;10.30;99.90
8565;DHT22;4320;51.498;6.556;2024-02-21T03:27:13;10.30;99.90
8565;DHT22;4320;51.498;6.556;2024-02-21T03:29:38;10.30;99.90
8565;DHT22;4320;51.498;6.556;2024-02-21T03:32:04;10.40;99.90
8565;DHT22;4320;51.498;6.556;2024-02-21T03:34:30;10.30;99.90
8565;DHT22;4320;51.498;6.556;2024-02-21T03:36:55;10.30;99.90
8565;DHT22;4320;51.498;6.556;2024-02-21T03:39:21;10.30;99.90
8565;DHT22;4320;51.498;6.556;2024-02-21T03:41:47;10.30;99.90
8565;DHT22;4320;51.498;6.556;2024-02-21T03:44:12;10.30;99.90
8565;DHT22;4320;51.498;6.556;2024-02-21T03:46:38;10.30;99.90
8565;DHT22;4320;51.498;6.556;2024-02-21T03:49:04;10.30;99.20
8565;DHT22;4320;51.498;6.556;2024-02-21T03:51:29;10.30;98.20
8565;DHT22;4320;51.498;6.556;2024-02-21T03:53:55;10.30;98.60
8565;DHT22;4320;51.498;6.556;2024-02-21T03:56:21;10.30;99.40
8565;DHT22;4320;51.498;6.556;2024-02-21T03:58:46;10.40;99.20
8565;DHT22;4320;51.498;6.556;2024-02-21T04:01:12;10.40;97.40
8565;DHT22;4320;51.498;6.556;2024-02-21T04:03:37;10.30;96.80
8565;DHT22;4320;51.498;6.556;2024-02-21T04:06:03;10.40;96.60
8565;DHT22;4320;51.498;6.556;2024-02-21T04:08:29;10.40;96.10
8565;DHT22;4320;51.498;6.556;2024-02-21T04:10:54;10.40;97.20
8565;DHT22;4320;51.498;6.556;2024-02-21T04:13:20;10.40;96.30
8565;DHT22;4320;51.498;6.556;2024-02-21T04:15:47;10.40;95.50
8565;DHT22;4320;51.498;6.556;2024-02-21T04:18:13;10.40;95.80
8565;DHT22;4320;51.498;6.556;2024-02-21T04:20:40;10.50;96.20
8565;DHT22;4320;51.498;6.556;2024-02-21T04:23:05;10.50;95.60
8565;DHT22;4320;51.498;6.556;2024-02-21T04:25:31;10.60;94.90
8565;DHT22;4320;51.498;6.556;2024-02-21T04:27:56;10.50;94.50
8565;DHT22;4320;51.498;6.556;2024-02-21T04:30:22;10.40;94.40
8565;DHT22;4320;51.498;6.556;2024-02-21T04:32:47;10.50;94.00
8565;DHT22;4320;51.498;6.556;2024-02-21T04:35:13;10.50;93.10
8565;DHT22;4320;51.498;6.556;2024-02-21T04:37:38;10.40;92.50
8565;DHT22;4320;51.498;6.556;2024-02-21T04:40:05;10.40;92.30
8565;DHT22;4320;51.498;6.556;2024-02-21T04:42:30;10.50;91.70
8565;DHT22;4320;51.498;6.556;2024-02-21T04:44:56;10.40;91.40
8565;DHT22;4320;51.498;6.556;2024-02-21T04:47:21;10.50;91.60
8565;DHT22;4320;51.498;6.556;2024-02-21T04:49:49;10.50;91.50
8565;DHT22;4320;51.498;6.556;2024-02-21T04:52:14;10.50;88.80
8565;DHT22;4320;51.498;6.556;2024-02-21T04:54:40;10.50;89.10
8565;DHT22;4320;51.498;6.556;2024-02-21T04:57:05;10.60;87.70
8565;DHT22;4320;51.498;6.556;2024-02-21T04:59:32;10.50;87.00
8565;DHT22;4320;51.498;6.556;2024-02-21T05:01:57;10.50;90.30
8565;DHT22;4320;51.498;6.556;2024-02-21T05:04:24;10.60;83.00
8565;DHT22;4320;51.498;6.556;2024-02-21T05:06:50;10.50;81.60
8565;DHT22;4320;51.498;6.556;2024-02-21T05:09:15;10.50;79.50
8565;DHT22;4320;51.498;6.556;2024-02-21T05:11:41;10.60;78.80
8565;DHT22;4320;51.498;6.556;2024-02-21T05:14:06;10.50;77.30
8565;DHT22;4320;51.498;6.556;2024-02-21T05:16:32;10.50;77.20
8565;DHT22;4320;51.498;6.556;2024-02-21T05:18:58;10.60;76.10
8565;DHT22;4320;51.498;6.556;2024-02-21T05:21:24;10.50;76.70
8565;DHT22;4320;51.498;6.556;2024-02-21T05:23:50;10.50;76.90
8565;DHT22;4320;51.498;6.556;2024-02-21T05:26:26;10.50;75.10
8565;DHT22;4320;51.498;6.556;2024-02-21T05:28:52;10.60;74.30
8565;DHT22;4320;51.498;6.556;2024-02-21T05:31:19;10.50;75.30
8565;DHT22;4320;51.498;6.556;2024-02-21T05:33:45;10.50;76.30
8565;DHT22;4320;51.498;6.556;2024-02-21T05:36:11;10.40;76.70
8565;DHT22;4320;51.498;6.556;2024-02-21T05:38:37;10.40;77.80
8565;DHT22;4320;51.498;6.556;2024-02-21T05:41:03;10.30;77.80
8565;DHT22;4320;51.498;6.556;2024-02-21T05:43:30;10.30;77.90
8565;DHT22;4320;51.498;6.556;2024-02-21T05:45:56;10.40;79.20
8565;DHT22;4320;51.498;6.556;2024-02-21T05:48:22;10.40;78.10
8565;DHT22;4320;51.498;6.556;2024-02-21T05:50:47;10.40;79.60
8565;DHT22;4320;51.498;6.556;2024-02-21T05:53:13;10.30;78.40
8565;DHT22;4320;51.498;6.556;2024-02-21T05:55:39;10.40;80.50
8565;DHT22;4320;51.498;6.556;2024-02-21T05:58:04;10.40;80.50
8565;DHT22;4320;51.498;6.556;2024-02-21T06:00:31;10.40;80.60
8565;DHT22;4320;51.498;6.556;2024-02-21T06:02:57;10.40;79.30
8565;DHT22;4320;51.498;6.556;2024-02-21T06:05:23;10.40;79.40
8565;DHT22;4320;51.498;6.556;2024-02-21T06:07:49;10.30;80.50
8565;DHT22;4320;51.498;6.556;2024-02-21T06:10:15;10.30;79.70
8565;DHT22;4320;51.498;6.556;2024-02-21T06:12:40;10.30;81.50
8565;DHT22;4320;51.498;6.556;2024-02-21T06:15:06;10.30;81.80
8565;DHT22;4320;51.498;6.556;2024-02-21T06:17:32;10.30;80.50
8565;DHT22;4320;51.498;6.556;2024-02-21T06:19:57;10.30;79.70
8565;DHT22;4320;51.498;6.556;2024-02-21T06:22:23;10.20;81.30
8565;DHT22;4320;51.498;6.556;2024-02-21T06:24:49;10.30;81.30
8565;DHT22;4320;51.498;6.556;2024-02-21T06:27:15;10.30;81.60
8565;DHT22;4320;51.498;6.556;2024-02-21T06:29:41;10.30;81.70
8565;DHT22;4320;51.498;6.556;2024-02-21T06:32:07;10.30;83.80
8565;DHT22;4320;51.498;6.556;2024-02-21T06:34:33;10.30;83.50
8565;DHT22;4320;51.498;6.556;2024-02-21T06:36:58;10.30;84.60
8565;DHT22;4320;51.498;6.556;2024-02-21T06:39:24;10.20;87.00
8565;DHT22;4320;51.498;6.556;2024-02-21T06:41:50;10.20;88.60
8565;DHT22;4320;51.498;6.556;2024-02-21T06:44:17;10.20;89.10
8565;DHT22;4320;51.498;6.556;2024-02-21T06:46:43;10.20;89.50
8565;DHT22;4320;51.498;6.556;2024-02-21T06:49:08;10.20;90.20
8565;DHT22;4320;51.498;6.556;2024-02-21T06:51:34;10.20;89.30
8565;DHT22;4320;51.498;6.556;2024-02-21T06:54:00;10.20;90.90
8565;DHT22;4320;51.498;6.556;2024-02-21T06:56:26;10.30;91.80
8565;DHT22;4320;51.498;6.556;2024-02-21T06:58:55;10.20;91.20
8565;DHT22;4320;51.498;6.556;2024-02-21T07:01:21;10.20;91.00
8565;DHT22;4320;51.498;6.556;2024-02-21T07:03:47;10.20;91.80
8565;DHT22;4320;51.498;6.556;2024-02-21T07:06:13;10.20;92.10
8565;DHT22;4320;51.498;6.556;2024-02-21T07:08:38;10.20;92.40
8565;DHT22;4320;51.498;6.556;2024-02-21T07:11:04;10.20;92.70
8565;DHT22;4320;51.498;6.556;2024-02-21T07:13:30;10.20;91.80
8565;DHT22;4320;51.498;6.556;2024-02-21T07:15:56;10.10;92.60
8565;DHT22;4320;51.498;6.556;2024-02-21T07:18:21;10.20;92.60
8565;DHT22;4320;51.498;6.556;2024-02-21T07:20:47;10.20;92.90
8565;DHT22;4320;51.498;6.556;2024-02-21T07:23:13;10.20;92.90
8565;DHT22;4320;51.498;6.556;2024-02-21T07:25:39;10.20;92.80
8565;DHT22;4320;51.498;6.556;2024-02-21T07:28:05;10.20;93.10
8565;DHT22;4320;51.498;6.556;2024-02-21T07:30:31;10.30;92.50
8565;DHT22;4320;51.498;6.556;2024-02-21T07:32:57;10.30;91.80
8565;DHT22;4320;51.498;6.556;2024-02-21T07:35:22;10.30;91.40
8565;DHT22;4320;51.498;6.556;2024-02-21T07:37:48;10.30;91.40
8565;DHT22;4320;51.498;6.556;2024-02-21T07:40:15;10.30;90.90
8565;DHT22;4320;51.498;6.556;2024-02-21T07:42:41;10.30;91.70
8565;DHT22;4320;51.498;6.556;2024-02-21T07:45:08;10.20;91.00
8565;DHT22;4320;51.498;6.556;2024-02-21T07:47:34;10.20;91.90
8565;DHT22;4320;51.498;6.556;2024-02-21T07:50:00;10.20;90.90
8565;DHT22;4320;51.498;6.556;2024-02-21T07:52:26;10.20;91.20
8565;DHT22;4320;51.498;6.556;2024-02-21T07:54:51;10.20;90.80
8565;DHT22;4320;51.498;6.556;2024-02-21T07:57:17;10.20;90.80
8565;DHT22;4320;51.498;6.556;2024-02-21T07:59:43;10.20;91.10
8565;DHT22;4320;51.498;6.556;2024-02-21T08:02:09;10.20;90.90
8565;DHT22;4320;51.498;6.556;2024-02-21T08:04:35;10.30;91.60
8565;DHT22;4320;51.498;6.556;2024-02-21T08:07:00;10.20;90.70
8565;DHT22;4320;51.498;6.556;2024-02-21T08:09:28;10.30;90.90
8565;DHT22;4320;51.498;6.556;2024-02-21T08:11:54;10.30;89.80
8565;DHT22;4320;51.498;6.556;2024-02-21T08:14:21;10.30;89.10
8565;DHT22;4320;51.498;6.556;2024-02-21T08:16:47;10.30;87.30
8565;DHT22;4320;51.498;6.556;2024-02-21T08:19:12;10.40;86.80
8565;DHT22;4320;51.498;6.556;2024-02-21T08:21:38;10.40;85.90
8565;DHT22;4320;51.498;6.556;2024-02-21T08:24:04;10.40;86.20
8565;DHT22;4320;51.498;6.556;2024-02-21T08:26:30;10.40;83.50
8565;DHT22;4320;51.498;6.556;2024-02-21T08:28:57;10.40;81.90
8565;DHT22;4320;51.498;6.556;2024-02-21T08:31:26;10.40;81.00
8565;DHT22;4320;51.498;6.556;2024-02-21T08:34:00;10.40;81.40
8565;DHT22;4320;51.498;6.556;2024-02-21T08:36:33;10.40;84.50
8565;DHT22;4320;51.498;6.556;2024-02-21T08:38:59;10.50;81.90
8565;DHT22;4320;51.498;6.556;2024-02-21T08:41:26;10.50;79.30
8565;DHT22;4320;51.498;6.556;2024-02-21T08:43:52;10.50;80.00
8565;DHT22;4320;51.498;6.556;2024-02-21T08:46:19;10.60;78.10
8565;DHT22;4320;51.498;6.556;2024-02-21T08:48:45;10.60;77.10
8565;DHT22;4320;51.498;6.556;2024-02-21T08:51:12;10.70;76.80
8565;DHT22;4320;51.498;6.556;2024-02-21T08:53:37;10.70;76.50
8565;DHT22;4320;51.498;6.556;2024-02-21T08:56:04;10.70;76.70
8565;DHT22;4320;51.498;6.556;2024-02-21T08:58:29;10.60;77.50
8565;DHT22;4320;51.498;6.556;2024-02-21T09:00:55;10.60;77.60
8565;DHT22;4320;51.498;6.556;2024-02-21T09:03:22;10.50;76.00
8565;DHT22;4320;51.498;6.556;2024-02-21T09:05:48;10.50;77.80
8565;DHT22;4320;51.498;6.556;2024-02-21T09:08:13;10.50;74.90
8565;DHT22;4320;51.498;6.556;2024-02-21T09:10:42;10.60;76.60
8565;DHT22;4320;51.498;6.556;2024-02-21T09:13:08;10.60;74.80
8565;DHT22;4320;51.498;6.556;2024-02-21T09:15:34;10.50;72.10
8565;DHT22;4320;51.498;6.556;2024-02-21T09:17:59;10.50;73.80
8565;DHT22;4320;51.498;6.556;2024-02-21T09:20:25;10.50;71.50
8565;DHT22;4320;51.498;6.556;2024-02-21T09:22:51;10.50;71.50
8565;DHT22;4320;51.498;6.556;2024-02-21T09:25:18;10.60;71.30
8565;DHT22;4320;51.498;6.556;2024-02-21T09:27:44;10.60;70.60
8565;DHT22;4320;51.498;6.556;2024-02-21T09:30:10;10.60;69.70
8565;DHT22;4320;51.498;6.556;2024-02-21T09:32:36;10.60;67.70
8565;DHT22;4320;51.498;6.556;2024-02-21T09:35:02;10.60;65.10
8565;DHT22;4320;51.498;6.556;2024-02-21T09:37:28;10.50;65.70
8565;DHT22;4320;51.498;6.556;2024-02-21T09:39:54;10.60;65.00
8565;DHT22;4320;51.498;6.556;2024-02-21T09:42:20;10.60;64.90
8565;DHT22;4320;51.498;6.556;2024-02-21T09:44:47;10.60;62.70
8565;DHT22;4320;51.498;6.556;2024-02-21T09:47:22;10.60;60.50
8565;DHT22;4320;51.498;6.556;2024-02-21T09:49:48;10.70;60.80
8565;DHT22;4320;51.498;6.556;2024-02-21T09:52:15;10.70;61.30
8565;DHT22;4320;51.498;6.556;2024-02-21T09:54:42;10.70;60.10
8565;DHT22;4320;51.498;6.556;2024-02-21T09:57:10;10.70;60.20
8565;DHT22;4320;51.498;6.556;2024-02-21T09:59:36;10.70;59.40
8565;DHT22;4320;51.498;6.556;2024-02-21T10:02:02;10.60;58.10
8565;DHT22;4320;51.498;6.556;2024-02-21T10:04:28;10.70;59.50
8565;DHT22;4320;51.498;6.556;2024-02-21T10:06:55;10.70;58.50
8565;DHT22;4320;51.498;6.556;2024-02-21T10:09:25;10.70;57.30
8565;DHT22;4320;51.498;6.556;2024-02-21T10:11:53;10.60;56.80
8565;DHT22;4320;51.498;6.556;2024-02-21T10:14:19;10.60;56.90
8565;DHT22;4320;51.498;6.556;2024-02-21T10:16:47;10.60;57.40
8565;DHT22;4320;51.498;6.556;2024-02-21T10:19:20;10.60;55.00
8565;DHT22;4320;51.498;6.556;2024-02-21T10:22:06;10.60;56.80
8565;DHT22;4320;51.498;6.556;2024-02-21T10:24:36;10.80;57.00
8565;DHT22;4320;51.498;6.556;2024-02-21T10:27:05;10.70;56.20
8565;DHT22;4320;51.498;6.556;2024-02-21T10:29:33;10.70;54.30
8565;DHT22;4320;51.498;6.556;2024-02-21T10:32:13;10.80;53.10
8565;DHT22;4320;51.498;6.556;2024-02-21T10:34:40;10.80;50.40
8565;DHT22;4320;51.498;6.556;2024-02-21T10:37:07;10.90;50.40
8565;DHT22;4320;51.498;6.556;2024-02-21T10:39:37;10.90;47.50
8565;DHT22;4320;51.498;6.556;2024-02-21T10:42:04;11.00;44.70
8565;DHT22;4320;51.498;6.556;2024-02-21T10:44:31;10.90;40.30
8565;DHT22;4320;51.498;6.556;2024-02-21T10:46:58;11.00;39.40
8565;DHT22;4320;51.498;6.556;2024-02-21T10:49:25;11.00;35.00
8565;DHT22;4320;51.498;6.556;2024-02-21T10:51:55;10.90;30.00
8565;DHT22;4320;51.498;6.556;2024-02-21T10:54:43;10.90;29.70
8565;DHT22;4320;51.498;6.556;2024-02-21T10:57:10;11.00;26.80
8565;DHT22;4320;51.498;6.556;2024-02-21T10:59:39;11.10;25.60
8565;DHT22;4320;51.498;6.556;2024-02-21T11:02:05;11.20;23.80
8565;DHT22;4320;51.498;6.556;2024-02-21T11:04:32;11.30;20.80
8565;DHT22;4320;51.498;6.556;2024-02-21T11:07:02;11.30;19.50
8565;DHT22;4320;51.498;6.556;2024-02-21T11:09:32;11.30;16.90
8565;DHT22;4320;51.498;6.556;2024-02-21T11:11:58;11.30;16.00
8565;DHT22;4320;51.498;6.556;2024-02-21T11:14:27;11.30;14.40
8565;DHT22;4320;51.498;6.556;2024-02-21T11:16:53;11.30;13.60
8565;DHT22;4320;51.498;6.556;2024-02-21T11:19:21;11.40;11.70
8565;DHT22;4320;51.498;6.556;2024-02-21T11:21:48;11.50;10.70
8565;DHT22;4320;51.498;6.556;2024-02-21T11:24:14;11.50;9.50
8565;DHT22;4320;51.498;6.556;2024-02-21T11:26:50;11.60;6.70
8565;DHT22;4320;51.498;6.556;2024-02-21T11:29:23;11.70;4.40
8565;DHT22;4320;51.498;6.556;2024-02-21T11:31:49;11.80;2.00
8565;DHT22;4320;51.498;6.556;2024-02-21T11:34:18;11.80;1.00
8565;DHT22;4320;51.498;6.556;2024-02-21T11:36:52;11.70;1.00
8565;DHT22;4320;51.498;6.556;2024-02-21T11:39:19;11.80;1.00
8565;DHT22;4320;51.498;6.556;2024-02-21T11:41:47;11.90;1.00
8565;DHT22;4320;51.498;6.556;2024-02-21T11:44:12;11.90;1.00
8565;DHT22;4320;51.498;6.556;2024-02-21T11:46:38;11.80;1.00
8565;DHT22;4320;51.498;6.556;2024-02-21T11:49:04;11.70;1.00
8565;DHT22;4320;51.498;6.556;2024-02-21T11:51:30;11.70;1.00
8565;DHT22;4320;51.498;6.556;2024-02-21T11:53:55;11.70;1.00
8565;DHT22;4320;51.498;6.556;2024-02-21T11:56:21;11.80;1.00
8565;DHT22;4320;51.498;6.556;2024-02-21T11:58:48;11.90;1.00
8565;DHT22;4320;51.498;6.556;2024-02-21T12:01:14;11.80;1.00
8565;DHT22;4320;51.498;6.556;2024-02-21T12:03:40;11.90;2.20
8565;DHT22;4320;51.498;6.556;2024-02-21T12:06:07;12.00;1.00
8565;DHT22;4320;51.498;6.556;2024-02-21T12:08:45;12.10;1.00
8565;DHT22;4320;51.498;6.556;2024-02-21T12:11:21;12.00;1.00
8565;DHT22;4320;51.498;6.556;2024-02-21T12:14:00;11.90;1.00
8565;DHT22;4320;51.498;6.556;2024-02-21T12:16:27;11.80;1.00
8565;DHT22;4320;51.498;6.556;2024-02-21T12:18:54;11.80;1.00
8565;DHT22;4320;51.498;6.556;2024-02-21T12:21:24;11.80;1.00
8565;DHT22;4320;51.498;6.556;2024-02-21T12:23:49;12.00;1.00
8565;DHT22;4320;51.498;6.556;2024-02-21T12:26:15;12.00;1.00
8565;DHT22;4320;51.498;6.556;2024-02-21T12:28:40;12.10;1.00
8565;DHT22;4320;51.498;6.556;2024-02-21T12:31:06;12.20;1.00
8565;DHT22;4320;51.498;6.556;2024-02-21T12:33:31;12.20;1.00
8565;DHT22;4320;51.498;6.556;2024-02-21T12:35:58;12.10;1.00
8565;DHT22;4320;51.498;6.556;2024-02-21T12:38:24;12.30;1.00
8565;DHT22;4320;51.498;6.556;2024-02-21T12:40:49;12.30;1.00
8565;DHT22;4320;51.498;6.556;2024-02-21T12:43:15;12.40;1.00
8565;DHT22;4320;51.498;6.556;2024-02-21T12:45:40;12.50;1.00
8565;DHT22;4320;51.498;6.556;2024-02-21T12:48:06;12.50;1.00
8565;DHT22;4320;51.498;6.556;2024-02-21T12:50:32;12.60;1.00
8565;DHT22;4320;51.498;6.556;2024-02-21T12:52:58;12.60;1.00
8565;DHT22;4320;51.498;6.556;2024-02-21T12:55:24;12.60;1.00
8565;DHT22;4320;51.498;6.556;2024-02-21T12:57:49;12.40;1.00
8565;DHT22;4320;51.498;6.556;2024-02-21T13:00:15;12.60;1.00
8565;DHT22;4320;51.498;6.556;2024-02-21T13:02:41;12.60;1.00
8565;DHT22;4320;51.498;6.556;2024-02-21T13:05:08;12.80;1.00
8565;DHT22;4320;51.498;6.556;2024-02-21T13:07:34;12.80;1.00
8565;DHT22;4320;51.498;6.556;2024-02-21T13:09:59;12.70;1.00
8565;DHT22;4320;51.498;6.556;2024-02-21T13:12:25;12.40;1.00
8565;DHT22;4320;51.498;6.556;2024-02-21T13:14:55;12.40;1.00
8565;DHT22;4320;51.498;6.556;2024-02-21T13:17:21;12.20;1.00
8565;DHT22;4320;51.498;6.556;2024-02-21T13:19:47;12.20;1.00
8565;DHT22;4320;51.498;6.556;2024-02-21T13:22:13;12.20;1.00
8565;DHT22;4320;51.498;6.556;2024-02-21T13:24:39;12.10;1.00
8565;DHT22;4320;51.498;6.556;2024-02-21T13:27:04;12.10;1.00
8565;DHT22;4320;51.498;6.556;2024-02-21T13:29:30;11.90;1.00
8565;DHT22;4320;51.498;6.556;2024-02-21T13:31:56;12.00;1.00
8565;DHT22;4320;51.498;6.556;2024-02-21T13:34:22;12.10;1.00
8565;DHT22;4320;51.498;6.556;2024-02-21T13:36:47;12.30;1.00
8565;DHT22;4320;51.498;6.556;2024-02-21T13:39:13;12.20;1.00
8565;DHT22;4320;51.498;6.556;2024-02-21T13:41:42;12.20;1.00
8565;DHT22;4320;51.498;6.556;2024-02-21T13:44:08;12.30;1.00
8565;DHT22;4320;51.498;6.556;2024-02-21T13:46:34;12.40;1.00
8565;DHT22;4320;51.498;6.556;2024-02-21T13:49:04;12.40;1.00
8565;DHT22;4320;51.498;6.556;2024-02-21T13:51:36;12.30;1.00
8565;DHT22;4320;51.498;6.556;2024-02-21T13:54:02;12.10;1.00
8565;DHT22;4320;51.498;6.556;2024-02-21T13:56:29;12.10;1.00
8565;DHT22;4320;51.498;6.556;2024-02-21T13:58:55;12.20;1.00
8565;DHT22;4320;51.498;6.556;2024-02-21T14:01:21;12.30;1.00
8565;DHT22;4320;51.498;6.556;2024-02-21T14:03:46;12.50;1.00
8565;DHT22;4320;51.498;6.556;2024-02-21T14:06:12;12.60;1.00
8565;DHT22;4320;51.498;6.556;2024-02-21T14:08:38;12.40;1.00
8565;DHT22;4320;51.498;6.556;2024-02-21T14:11:05;12.50;1.00
8565;DHT22;4320;51.498;6.556;2024-02-21T14:13:31;12.70;1.00
8565;DHT22;4320;51.498;6.556;2024-02-21T14:15:57;12.60;1.00
8565;DHT22;4320;51.498;6.556;2024-02-21T14:18:22;12.70;1.00
8565;DHT22;4320;51.498;6.556;2024-02-21T14:20:48;12.70;1.00
8565;DHT22;4320;51.498;6.556;2024-02-21T14:23:14;12.80;1.00
8565;DHT22;4320;51.498;6.556;2024-02-21T14:25:39;12.80;1.00
8565;DHT22;4320;51.498;6.556;2024-02-21T14:28:22;12.70;1.00
8565;DHT22;4320;51.498;6.556;2024-02-21T14:30:48;12.70;1.00
8565;DHT22;4320;51.498;6.556;2024-02-21T14:33:19;12.80;1.00
8565;DHT22;4320;51.498;6.556;2024-02-21T14:35:44;12.70;1.00
8565;DHT22;4320;51.498;6.556;2024-02-21T14:38:10;12.60;1.00
8565;DHT22;4320;51.498;6.556;2024-02-21T14:40:35;12.60;1.00
8565;DHT22;4320;51.498;6.556;2024-02-21T14:43:01;12.70;1.00
8565;DHT22;4320;51.498;6.556;2024-02-21T14:45:27;12.70;1.00
8565;DHT22;4320;51.498;6.556;2024-02-21T14:47:52;12.70;1.00
8565;DHT22;4320;51.498;6.556;2024-02-21T14:50:18;12.70;1.00
8565;DHT22;4320;51.498;6.556;2024-02-21T14:52:44;12.70;1.00
8565;DHT22;4320;51.498;6.556;2024-02-21T14:55:09;12.70;1.00
8565;DHT22;4320;51.498;6.556;2024-02-21T14:57:35;12.70;1.00
8565;DHT22;4320;51.498;6.556;2024-02-21T15:00:02;12.60;1.00
8565;DHT22;4320;51.498;6.556;2024-02-21T15:02:28;12.60;1.00
8565;DHT22;4320;51.498;6.556;2024-02-21T15:04:54;12.70;1.00
8565;DHT22;4320;51.498;6.556;2024-02-21T15:07:20;12.70;1.00
8565;DHT22;4320;51.498;6.556;2024-02-21T15:09:49;12.70;1.00
8565;DHT22;4320;51.498;6.556;2024-02-21T15:12:15;12.60;1.00
8565;DHT22;4320;51.498;6.556;2024-02-21T15:14:41;12.50;1.00
8565;DHT22;4320;51.498;6.556;2024-02-21T15:17:09;12.50;1.00
8565;DHT22;4320;51.498;6.556;2024-02-21T15:19:35;12.50;1.00
8565;DHT22;4320;51.498;6.556;2024-02-21T15:22:02;12.50;1.00
8565;DHT22;4320;51.498;6.556;2024-02-21T15:24:28;12.40;1.00
8565;DHT22;4320;51.498;6.556;2024-02-21T15:26:53;12.40;1.00
8565;DHT22;4320;51.498;6.556;2024-02-21T15:29:19;12.40;1.00
8565;DHT22;4320;51.498;6.556;2024-02-21T15:31:45;12.40;1.00
8565;DHT22;4320;51.498;6.556;2024-02-21T15:34:13;12.40;1.00
8565;DHT22;4320;51.498;6.556;2024-02-21T15:36:41;12.40;1.00
8565;DHT22;4320;51.498;6.556;2024-02-21T15:39:08;12.30;1.00
8565;DHT22;4320;51.498;6.556;2024-02-21T15:41:33;12.30;1.00
8565;DHT22;4320;51.498;6.556;2024-02-21T15:43:59;12.30;1.00
8565;DHT22;4320;51.498;6.556;2024-02-21T15:46:25;12.30;1.00
8565;DHT22;4320;51.498;6.556;2024-02-21T15:48:51;12.20;1.00
8565;DHT22;4320;51.498;6.556;2024-02-21T15:51:20;12.30;1.00
8565;DHT22;4320;51.498;6.556;2024-02-21T15:53:46;12.30;1.00
8565;DHT22;4320;51.498;6.556;2024-02-21T15:56:12;12.30;1.00
8565;DHT22;4320;51.498;6.556;2024-02-21T15:58:41;12.30;1.00
8565;DHT22;4320;51.498;6.556;2024-02-21T16:01:06;12.30;1.00
8565;DHT22;4320;51.498;6.556;2024-02-21T16:03:32;12.30;1.00